首页
METAR-TAF:

METAR-TAF

机场 :

伊瓜苏, 巴拉那州, 巴西

纬度: 25-31S, 经度: 054-35W, 海拔: 180米

当前天气观测

该预报发布于13分钟前的02:00 UTC
风速2节,风向南转南东
温度 20°C
湿度 94%
气压 1013 hPa
能见度10公里或以上
1500米以下无云,无积雨云

METAR: SBFI 220200Z 15002KT CAVOK 20/19 Q1013

时间: 00:13 (02:13 UTC)

预报

该预报发布于3小时和58分钟前的22:15 UTC
预报有效从22日的 00点(UTC)到 22日的 24点(UTC)
风速5节,风向东转东南
能见度10公里或以上
1500米以下无云,无积雨云
成为
从 22日的 13点(UTC)到 22日的 15点(UTC)
风速9节,风向北转东北
能见度10公里或以上
少量云层高于3000英尺

TAF: SBFI 212215Z 2200/2224 11005KT CAVOK TN18/2209Z TX31/2218Z BECMG 2213/2215 02009KT 9999 FEW030 RMK PCX

超过4000个机场的气象观测和天气预报(METAR&TAF报告)。

可查询的气象台以黄色和红色小点在地图上表示。

将鼠标移到小点上方,可查看气象台名称。

然后点击查看天气观测和预报。

如需切换地图:点击带黑十字的绿色按钮放大地图;点击带横线的绿色按钮缩小地图;或者点击绿色箭头查看邻近地区的地图。


METAR-TAF: